sensor_id;sensor_type;location;lat;lon;timestamp;P1;durP1;ratioP1;P2;durP2;ratioP2
35294;SDS011;21413;48.032;7.764;2023-06-22T00:00:27;16.50;;;9.93;;
35294;SDS011;21413;48.032;7.764;2023-06-22T00:02:53;15.10;;;9.20;;
35294;SDS011;21413;48.032;7.764;2023-06-22T00:05:19;10.83;;;9.53;;
35294;SDS011;21413;48.032;7.764;2023-06-22T00:07:45;11.83;;;8.73;;
35294;SDS011;21413;48.032;7.764;2023-06-22T00:10:13;12.57;;;9.27;;
35294;SDS011;21413;48.032;7.764;2023-06-22T00:12:42;11.70;;;9.10;;
35294;SDS011;21413;48.032;7.764;2023-06-22T00:15:08;22.10;;;8.87;;
35294;SDS011;21413;48.032;7.764;2023-06-22T00:17:36;11.10;;;8.97;;
35294;SDS011;21413;48.032;7.764;2023-06-22T00:20:04;16.83;;;9.90;;
35294;SDS011;21413;48.032;7.764;2023-06-22T00:22:31;12.30;;;8.90;;
35294;SDS011;21413;48.032;7.764;2023-06-22T00:24:56;18.87;;;9.57;;
35294;SDS011;21413;48.032;7.764;2023-06-22T00:27:22;12.30;;;8.60;;
35294;SDS011;21413;48.032;7.764;2023-06-22T00:29:48;14.67;;;9.00;;
35294;SDS011;21413;48.032;7.764;2023-06-22T00:32:14;16.10;;;8.97;;
35294;SDS011;21413;48.032;7.764;2023-06-22T00:34:42;11.33;;;9.27;;
35294;SDS011;21413;48.032;7.764;2023-06-22T00:37:08;15.77;;;9.03;;
35294;SDS011;21413;48.032;7.764;2023-06-22T00:39:38;17.13;;;9.37;;
35294;SDS011;21413;48.032;7.764;2023-06-22T00:42:04;13.13;;;9.30;;
35294;SDS011;21413;48.032;7.764;2023-06-22T00:44:30;15.67;;;9.03;;
35294;SDS011;21413;48.032;7.764;2023-06-22T00:46:56;20.73;;;10.47;;
35294;SDS011;21413;48.032;7.764;2023-06-22T00:49:22;24.97;;;11.70;;
35294;SDS011;21413;48.032;7.764;2023-06-22T00:51:48;14.73;;;12.60;;
35294;SDS011;21413;48.032;7.764;2023-06-22T00:54:14;13.70;;;12.33;;
35294;SDS011;21413;48.032;7.764;2023-06-22T00:56:43;17.77;;;12.80;;
35294;SDS011;21413;48.032;7.764;2023-06-22T00:59:10;14.60;;;13.17;;
35294;SDS011;21413;48.032;7.764;2023-06-22T01:01:37;16.60;;;12.23;;
35294;SDS011;21413;48.032;7.764;2023-06-22T01:04:06;15.37;;;12.57;;
35294;SDS011;21413;48.032;7.764;2023-06-22T01:06:35;14.50;;;13.20;;
35294;SDS011;21413;48.032;7.764;2023-06-22T01:09:08;24.23;;;12.93;;
35294;SDS011;21413;48.032;7.764;2023-06-22T01:11:45;18.90;;;14.07;;
35294;SDS011;21413;48.032;7.764;2023-06-22T01:16:40;16.13;;;13.60;;
35294;SDS011;21413;48.032;7.764;2023-06-22T01:21:43;19.10;;;14.47;;
35294;SDS011;21413;48.032;7.764;2023-06-22T01:24:25;16.90;;;15.13;;
35294;SDS011;21413;48.032;7.764;2023-06-22T01:29:31;22.03;;;16.03;;
35294;SDS011;21413;48.032;7.764;2023-06-22T01:31:59;21.17;;;17.40;;
35294;SDS011;21413;48.032;7.764;2023-06-22T01:34:25;21.40;;;16.97;;
35294;SDS011;21413;48.032;7.764;2023-06-22T01:36:54;23.07;;;16.70;;
35294;SDS011;21413;48.032;7.764;2023-06-22T01:39:22;24.97;;;17.70;;
35294;SDS011;21413;48.032;7.764;2023-06-22T01:41:48;24.93;;;17.80;;
35294;SDS011;21413;48.032;7.764;2023-06-22T01:44:15;26.87;;;19.30;;
35294;SDS011;21413;48.032;7.764;2023-06-22T01:46:41;23.10;;;19.00;;
35294;SDS011;21413;48.032;7.764;2023-06-22T01:49:07;25.03;;;18.90;;
35294;SDS011;21413;48.032;7.764;2023-06-22T01:51:34;29.90;;;20.00;;
35294;SDS011;21413;48.032;7.764;2023-06-22T01:54:00;26.73;;;19.87;;
35294;SDS011;21413;48.032;7.764;2023-06-22T01:56:27;25.03;;;19.47;;
35294;SDS011;21413;48.032;7.764;2023-06-22T01:58:57;27.13;;;19.33;;
35294;SDS011;21413;48.032;7.764;2023-06-22T02:01:24;29.50;;;18.50;;
35294;SDS011;21413;48.032;7.764;2023-06-22T02:04:02;22.00;;;18.90;;
35294;SDS011;21413;48.032;7.764;2023-06-22T02:06:30;23.27;;;18.53;;
35294;SDS011;21413;48.032;7.764;2023-06-22T02:09:01;26.43;;;19.77;;
35294;SDS011;21413;48.032;7.764;2023-06-22T02:11:28;22.90;;;18.40;;
35294;SDS011;21413;48.032;7.764;2023-06-22T02:13:55;23.90;;;18.30;;
35294;SDS011;21413;48.032;7.764;2023-06-22T02:16:23;21.47;;;19.20;;
35294;SDS011;21413;48.032;7.764;2023-06-22T02:18:49;21.83;;;17.27;;
35294;SDS011;21413;48.032;7.764;2023-06-22T02:21:19;22.10;;;17.40;;
35294;SDS011;21413;48.032;7.764;2023-06-22T02:23:45;17.20;;;14.27;;
35294;SDS011;21413;48.032;7.764;2023-06-22T02:26:11;22.73;;;13.67;;
35294;SDS011;21413;48.032;7.764;2023-06-22T02:28:40;19.23;;;13.23;;
35294;SDS011;21413;48.032;7.764;2023-06-22T02:31:08;15.67;;;14.00;;
35294;SDS011;21413;48.032;7.764;2023-06-22T02:33:34;20.97;;;12.60;;
35294;SDS011;21413;48.032;7.764;2023-06-22T02:36:00;19.87;;;13.30;;
35294;SDS011;21413;48.032;7.764;2023-06-22T02:38:30;16.63;;;14.17;;
35294;SDS011;21413;48.032;7.764;2023-06-22T02:40:58;16.20;;;12.47;;
35294;SDS011;21413;48.032;7.764;2023-06-22T02:43:26;17.30;;;12.67;;
35294;SDS011;21413;48.032;7.764;2023-06-22T02:45:55;16.03;;;12.83;;
35294;SDS011;21413;48.032;7.764;2023-06-22T02:48:21;20.03;;;13.50;;
35294;SDS011;21413;48.032;7.764;2023-06-22T02:50:47;19.47;;;13.90;;
35294;SDS011;21413;48.032;7.764;2023-06-22T02:53:13;19.20;;;13.73;;
35294;SDS011;21413;48.032;7.764;2023-06-22T02:55:41;23.00;;;14.03;;
35294;SDS011;21413;48.032;7.764;2023-06-22T02:58:07;16.10;;;14.03;;
35294;SDS011;21413;48.032;7.764;2023-06-22T03:00:33;29.07;;;13.77;;
35294;SDS011;21413;48.032;7.764;2023-06-22T03:02:59;16.63;;;14.27;;
35294;SDS011;21413;48.032;7.764;2023-06-22T03:05:25;18.70;;;14.80;;
35294;SDS011;21413;48.032;7.764;2023-06-22T03:07:53;22.87;;;15.23;;
35294;SDS011;21413;48.032;7.764;2023-06-22T03:10:19;17.53;;;15.10;;
35294;SDS011;21413;48.032;7.764;2023-06-22T03:12:45;25.40;;;14.90;;
35294;SDS011;21413;48.032;7.764;2023-06-22T03:15:14;24.00;;;15.03;;
35294;SDS011;21413;48.032;7.764;2023-06-22T03:17:40;18.63;;;16.60;;
35294;SDS011;21413;48.032;7.764;2023-06-22T03:20:06;17.30;;;15.40;;
35294;SDS011;21413;48.032;7.764;2023-06-22T03:22:39;16.60;;;14.90;;
35294;SDS011;21413;48.032;7.764;2023-06-22T03:25:08;25.87;;;17.17;;
35294;SDS011;21413;48.032;7.764;2023-06-22T03:27:38;18.10;;;15.87;;
35294;SDS011;21413;48.032;7.764;2023-06-22T03:30:05;24.00;;;17.37;;
35294;SDS011;21413;48.032;7.764;2023-06-22T03:32:31;22.80;;;16.20;;
35294;SDS011;21413;48.032;7.764;2023-06-22T03:35:05;25.17;;;13.60;;
35294;SDS011;21413;48.032;7.764;2023-06-22T03:37:31;28.33;;;15.53;;
35294;SDS011;21413;48.032;7.764;2023-06-22T03:39:57;24.90;;;14.80;;
35294;SDS011;21413;48.032;7.764;2023-06-22T03:42:23;29.63;;;14.97;;
35294;SDS011;21413;48.032;7.764;2023-06-22T03:44:49;40.53;;;14.63;;
35294;SDS011;21413;48.032;7.764;2023-06-22T03:47:16;44.83;;;14.07;;
35294;SDS011;21413;48.032;7.764;2023-06-22T03:49:42;33.10;;;13.30;;
35294;SDS011;21413;48.032;7.764;2023-06-22T03:52:08;34.27;;;14.60;;
35294;SDS011;21413;48.032;7.764;2023-06-22T03:54:35;29.73;;;15.27;;
35294;SDS011;21413;48.032;7.764;2023-06-22T03:57:01;33.87;;;14.50;;
35294;SDS011;21413;48.032;7.764;2023-06-22T03:59:30;30.10;;;14.10;;
35294;SDS011;21413;48.032;7.764;2023-06-22T04:01:57;39.17;;;14.57;;
35294;SDS011;21413;48.032;7.764;2023-06-22T04:04:23;37.63;;;14.90;;
35294;SDS011;21413;48.032;7.764;2023-06-22T04:06:49;24.93;;;13.93;;
35294;SDS011;21413;48.032;7.764;2023-06-22T04:09:15;32.00;;;12.90;;
35294;SDS011;21413;48.032;7.764;2023-06-22T04:11:41;34.23;;;14.90;;
35294;SDS011;21413;48.032;7.764;2023-06-22T04:14:07;20.13;;;15.07;;
35294;SDS011;21413;48.032;7.764;2023-06-22T04:16:33;26.60;;;15.33;;
35294;SDS011;21413;48.032;7.764;2023-06-22T04:18:59;23.37;;;15.00;;
35294;SDS011;21413;48.032;7.764;2023-06-22T04:21:25;22.60;;;13.90;;
35294;SDS011;21413;48.032;7.764;2023-06-22T04:23:53;37.07;;;14.20;;
35294;SDS011;21413;48.032;7.764;2023-06-22T04:26:22;21.57;;;14.47;;
35294;SDS011;21413;48.032;7.764;2023-06-22T04:28:48;50.23;;;15.33;;
35294;SDS011;21413;48.032;7.764;2023-06-22T04:31:20;28.37;;;15.13;;
35294;SDS011;21413;48.032;7.764;2023-06-22T04:33:46;25.97;;;16.13;;
35294;SDS011;21413;48.032;7.764;2023-06-22T04:36:12;21.73;;;14.70;;
35294;SDS011;21413;48.032;7.764;2023-06-22T04:38:40;25.57;;;15.60;;
35294;SDS011;21413;48.032;7.764;2023-06-22T04:41:07;39.87;;;20.83;;
35294;SDS011;21413;48.032;7.764;2023-06-22T04:43:39;24.60;;;18.43;;
35294;SDS011;21413;48.032;7.764;2023-06-22T04:46:05;19.17;;;15.90;;
35294;SDS011;21413;48.032;7.764;2023-06-22T04:48:33;25.90;;;16.67;;
35294;SDS011;21413;48.032;7.764;2023-06-22T04:50:59;26.63;;;15.10;;
35294;SDS011;21413;48.032;7.764;2023-06-22T04:53:30;22.60;;;14.80;;
35294;SDS011;21413;48.032;7.764;2023-06-22T04:55:58;22.20;;;14.47;;
35294;SDS011;21413;48.032;7.764;2023-06-22T04:58:24;29.90;;;23.60;;
35294;SDS011;21413;48.032;7.764;2023-06-22T05:00:53;32.83;;;17.30;;
35294;SDS011;21413;48.032;7.764;2023-06-22T05:03:24;20.93;;;13.90;;
35294;SDS011;21413;48.032;7.764;2023-06-22T05:05:52;19.63;;;13.97;;
35294;SDS011;21413;48.032;7.764;2023-06-22T05:08:18;21.93;;;13.00;;
35294;SDS011;21413;48.032;7.764;2023-06-22T05:10:51;21.00;;;14.03;;
35294;SDS011;21413;48.032;7.764;2023-06-22T05:13:17;20.53;;;14.03;;
35294;SDS011;21413;48.032;7.764;2023-06-22T05:15:43;24.93;;;13.87;;
35294;SDS011;21413;48.032;7.764;2023-06-22T05:18:09;23.00;;;13.30;;
35294;SDS011;21413;48.032;7.764;2023-06-22T05:20:36;19.63;;;14.10;;
35294;SDS011;21413;48.032;7.764;2023-06-22T05:23:05;21.40;;;13.87;;
35294;SDS011;21413;48.032;7.764;2023-06-22T05:25:31;20.17;;;13.23;;
35294;SDS011;21413;48.032;7.764;2023-06-22T05:27:59;21.83;;;13.47;;
35294;SDS011;21413;48.032;7.764;2023-06-22T05:30:25;19.13;;;13.43;;
35294;SDS011;21413;48.032;7.764;2023-06-22T05:32:52;20.20;;;12.73;;
35294;SDS011;21413;48.032;7.764;2023-06-22T05:35:20;21.47;;;14.30;;
35294;SDS011;21413;48.032;7.764;2023-06-22T05:37:46;17.27;;;13.70;;
35294;SDS011;21413;48.032;7.764;2023-06-22T05:40:13;22.93;;;14.60;;
35294;SDS011;21413;48.032;7.764;2023-06-22T05:42:41;17.93;;;13.90;;
35294;SDS011;21413;48.032;7.764;2023-06-22T05:45:10;24.80;;;15.23;;
35294;SDS011;21413;48.032;7.764;2023-06-22T05:47:36;16.27;;;12.87;;
35294;SDS011;21413;48.032;7.764;2023-06-22T05:50:02;22.30;;;12.87;;
35294;SDS011;21413;48.032;7.764;2023-06-22T05:52:33;18.07;;;13.33;;
35294;SDS011;21413;48.032;7.764;2023-06-22T05:54:59;24.47;;;14.27;;
35294;SDS011;21413;48.032;7.764;2023-06-22T05:57:25;20.97;;;14.80;;
35294;SDS011;21413;48.032;7.764;2023-06-22T05:59:51;17.03;;;15.23;;
35294;SDS011;21413;48.032;7.764;2023-06-22T06:02:18;27.13;;;14.97;;
35294;SDS011;21413;48.032;7.764;2023-06-22T06:04:44;31.47;;;14.70;;
35294;SDS011;21413;48.032;7.764;2023-06-22T06:07:10;20.43;;;15.37;;
35294;SDS011;21413;48.032;7.764;2023-06-22T06:09:36;21.87;;;15.80;;
35294;SDS011;21413;48.032;7.764;2023-06-22T06:12:02;18.83;;;16.27;;
35294;SDS011;21413;48.032;7.764;2023-06-22T06:14:29;19.70;;;15.03;;
35294;SDS011;21413;48.032;7.764;2023-06-22T06:16:54;26.77;;;15.30;;
35294;SDS011;21413;48.032;7.764;2023-06-22T06:19:20;22.23;;;15.30;;
35294;SDS011;21413;48.032;7.764;2023-06-22T06:21:49;23.33;;;15.93;;
35294;SDS011;21413;48.032;7.764;2023-06-22T06:24:16;27.90;;;15.40;;
35294;SDS011;21413;48.032;7.764;2023-06-22T06:26:42;24.07;;;17.03;;
35294;SDS011;21413;48.032;7.764;2023-06-22T06:29:08;24.17;;;15.30;;
35294;SDS011;21413;48.032;7.764;2023-06-22T06:31:36;25.93;;;18.57;;
35294;SDS011;21413;48.032;7.764;2023-06-22T06:34:02;21.83;;;17.63;;
35294;SDS011;21413;48.032;7.764;2023-06-22T06:36:30;25.50;;;17.77;;
35294;SDS011;21413;48.032;7.764;2023-06-22T06:38:56;21.40;;;15.90;;
35294;SDS011;21413;48.032;7.764;2023-06-22T06:41:22;19.80;;;16.40;;
35294;SDS011;21413;48.032;7.764;2023-06-22T06:43:48;22.80;;;17.27;;
35294;SDS011;21413;48.032;7.764;2023-06-22T06:46:14;21.83;;;16.67;;
35294;SDS011;21413;48.032;7.764;2023-06-22T06:48:40;29.03;;;19.13;;
35294;SDS011;21413;48.032;7.764;2023-06-22T06:51:06;29.13;;;16.83;;
35294;SDS011;21413;48.032;7.764;2023-06-22T06:53:35;24.53;;;17.07;;
35294;SDS011;21413;48.032;7.764;2023-06-22T06:56:01;25.73;;;18.43;;
35294;SDS011;21413;48.032;7.764;2023-06-22T06:58:30;21.93;;;16.97;;
35294;SDS011;21413;48.032;7.764;2023-06-22T07:00:58;25.77;;;17.83;;
35294;SDS011;21413;48.032;7.764;2023-06-22T07:03:24;22.97;;;19.90;;
35294;SDS011;21413;48.032;7.764;2023-06-22T07:05:50;25.60;;;18.70;;
35294;SDS011;21413;48.032;7.764;2023-06-22T07:08:16;26.00;;;19.37;;
35294;SDS011;21413;48.032;7.764;2023-06-22T07:10:42;26.47;;;19.77;;
35294;SDS011;21413;48.032;7.764;2023-06-22T07:13:08;26.37;;;19.53;;
35294;SDS011;21413;48.032;7.764;2023-06-22T07:15:34;30.17;;;20.47;;
35294;SDS011;21413;48.032;7.764;2023-06-22T07:18:03;32.57;;;22.20;;
35294;SDS011;21413;48.032;7.764;2023-06-22T07:20:29;30.73;;;21.93;;
35294;SDS011;21413;48.032;7.764;2023-06-22T07:22:55;27.77;;;20.70;;
35294;SDS011;21413;48.032;7.764;2023-06-22T07:25:21;25.70;;;19.57;;
35294;SDS011;21413;48.032;7.764;2023-06-22T07:27:57;30.53;;;20.03;;
35294;SDS011;21413;48.032;7.764;2023-06-22T07:30:23;21.37;;;18.90;;
35294;SDS011;21413;48.032;7.764;2023-06-22T07:32:49;23.43;;;18.10;;
35294;SDS011;21413;48.032;7.764;2023-06-22T07:35:15;24.07;;;18.10;;
35294;SDS011;21413;48.032;7.764;2023-06-22T07:37:44;26.10;;;18.60;;
35294;SDS011;21413;48.032;7.764;2023-06-22T07:40:10;19.37;;;16.70;;
35294;SDS011;21413;48.032;7.764;2023-06-22T07:42:37;26.80;;;18.00;;
35294;SDS011;21413;48.032;7.764;2023-06-22T07:45:03;23.43;;;17.47;;
35294;SDS011;21413;48.032;7.764;2023-06-22T07:47:29;22.30;;;18.10;;
35294;SDS011;21413;48.032;7.764;2023-06-22T07:50:00;22.60;;;18.80;;
35294;SDS011;21413;48.032;7.764;2023-06-22T07:52:26;26.37;;;17.93;;
35294;SDS011;21413;48.032;7.764;2023-06-22T07:54:52;24.07;;;17.33;;
35294;SDS011;21413;48.032;7.764;2023-06-22T07:57:18;18.30;;;16.33;;
35294;SDS011;21413;48.032;7.764;2023-06-22T07:59:44;17.87;;;15.10;;
35294;SDS011;21413;48.032;7.764;2023-06-22T08:02:13;24.03;;;15.83;;
35294;SDS011;21413;48.032;7.764;2023-06-22T08:04:39;23.40;;;13.83;;
35294;SDS011;21413;48.032;7.764;2023-06-22T08:07:06;20.03;;;13.97;;
35294;SDS011;21413;48.032;7.764;2023-06-22T08:09:35;18.37;;;14.97;;
35294;SDS011;21413;48.032;7.764;2023-06-22T08:12:03;16.33;;;13.20;;
35294;SDS011;21413;48.032;7.764;2023-06-22T08:14:30;15.70;;;13.93;;
35294;SDS011;21413;48.032;7.764;2023-06-22T08:17:01;16.53;;;14.60;;
35294;SDS011;21413;48.032;7.764;2023-06-22T08:19:29;17.37;;;12.00;;
35294;SDS011;21413;48.032;7.764;2023-06-22T08:21:55;20.63;;;11.00;;
35294;SDS011;21413;48.032;7.764;2023-06-22T08:24:21;11.67;;;10.50;;
35294;SDS011;21413;48.032;7.764;2023-06-22T08:26:51;15.67;;;11.30;;
35294;SDS011;21413;48.032;7.764;2023-06-22T08:29:17;11.13;;;10.03;;
35294;SDS011;21413;48.032;7.764;2023-06-22T08:31:46;11.63;;;9.80;;
35294;SDS011;21413;48.032;7.764;2023-06-22T08:34:14;20.80;;;10.37;;
35294;SDS011;21413;48.032;7.764;2023-06-22T08:36:40;11.07;;;9.87;;
35294;SDS011;21413;48.032;7.764;2023-06-22T08:39:09;12.30;;;9.53;;
35294;SDS011;21413;48.032;7.764;2023-06-22T08:41:41;13.00;;;8.80;;
35294;SDS011;21413;48.032;7.764;2023-06-22T08:44:07;15.87;;;9.20;;
35294;SDS011;21413;48.032;7.764;2023-06-22T08:46:33;14.80;;;8.87;;
35294;SDS011;21413;48.032;7.764;2023-06-22T08:48:59;9.63;;;8.27;;
35294;SDS011;21413;48.032;7.764;2023-06-22T08:51:28;12.43;;;7.97;;
35294;SDS011;21413;48.032;7.764;2023-06-22T08:53:59;9.67;;;7.60;;
35294;SDS011;21413;48.032;7.764;2023-06-22T08:56:25;9.53;;;8.03;;
35294;SDS011;21413;48.032;7.764;2023-06-22T08:58:51;11.80;;;8.53;;
35294;SDS011;21413;48.032;7.764;2023-06-22T09:01:17;13.83;;;9.07;;
35294;SDS011;21413;48.032;7.764;2023-06-22T09:03:43;12.63;;;7.57;;
35294;SDS011;21413;48.032;7.764;2023-06-22T09:06:09;12.73;;;7.40;;
35294;SDS011;21413;48.032;7.764;2023-06-22T09:08:35;12.17;;;7.47;;
35294;SDS011;21413;48.032;7.764;2023-06-22T09:11:01;15.83;;;8.00;;
35294;SDS011;21413;48.032;7.764;2023-06-22T09:13:30;9.00;;;7.30;;
35294;SDS011;21413;48.032;7.764;2023-06-22T09:16:01;17.30;;;8.30;;
35294;SDS011;21413;48.032;7.764;2023-06-22T09:18:30;11.40;;;8.20;;
35294;SDS011;21413;48.032;7.764;2023-06-22T09:20:58;14.03;;;7.73;;
35294;SDS011;21413;48.032;7.764;2023-06-22T09:23:24;15.47;;;8.70;;
35294;SDS011;21413;48.032;7.764;2023-06-22T09:25:50;9.67;;;8.10;;
35294;SDS011;21413;48.032;7.764;2023-06-22T09:28:16;16.93;;;7.70;;
35294;SDS011;21413;48.032;7.764;2023-06-22T09:30:44;18.93;;;7.50;;
35294;SDS011;21413;48.032;7.764;2023-06-22T09:33:11;11.83;;;7.60;;
35294;SDS011;21413;48.032;7.764;2023-06-22T09:35:37;9.20;;;7.20;;
35294;SDS011;21413;48.032;7.764;2023-06-22T09:38:02;8.93;;;7.43;;
35294;SDS011;21413;48.032;7.764;2023-06-22T09:40:28;8.40;;;7.60;;
35294;SDS011;21413;48.032;7.764;2023-06-22T09:42:54;13.87;;;8.20;;
35294;SDS011;21413;48.032;7.764;2023-06-22T09:45:20;16.07;;;7.97;;
35294;SDS011;21413;48.032;7.764;2023-06-22T09:47:46;11.63;;;7.90;;
35294;SDS011;21413;48.032;7.764;2023-06-22T09:50:12;15.87;;;7.67;;
35294;SDS011;21413;48.032;7.764;2023-06-22T09:52:38;9.20;;;7.70;;
35294;SDS011;21413;48.032;7.764;2023-06-22T09:55:04;12.80;;;8.77;;
35294;SDS011;21413;48.032;7.764;2023-06-22T09:57:30;9.53;;;8.30;;
35294;SDS011;21413;48.032;7.764;2023-06-22T09:59:56;9.90;;;8.43;;
35294;SDS011;21413;48.032;7.764;2023-06-22T10:02:22;18.20;;;8.20;;
35294;SDS011;21413;48.032;7.764;2023-06-22T10:04:48;8.43;;;7.63;;
35294;SDS011;21413;48.032;7.764;2023-06-22T10:07:14;10.97;;;7.70;;
35294;SDS011;21413;48.032;7.764;2023-06-22T10:09:42;10.90;;;7.60;;
35294;SDS011;21413;48.032;7.764;2023-06-22T10:12:11;12.43;;;7.80;;
35294;SDS011;21413;48.032;7.764;2023-06-22T10:14:37;12.87;;;7.83;;
35294;SDS011;21413;48.032;7.764;2023-06-22T10:17:05;16.37;;;8.67;;
35294;SDS011;21413;48.032;7.764;2023-06-22T10:19:32;13.90;;;7.17;;
35294;SDS011;21413;48.032;7.764;2023-06-22T10:21:58;15.30;;;7.90;;
35294;SDS011;21413;48.032;7.764;2023-06-22T10:24:27;9.47;;;7.43;;
35294;SDS011;21413;48.032;7.764;2023-06-22T10:26:52;19.37;;;8.17;;
35294;SDS011;21413;48.032;7.764;2023-06-22T10:29:19;13.90;;;7.53;;
35294;SDS011;21413;48.032;7.764;2023-06-22T10:31:46;10.17;;;7.53;;
35294;SDS011;21413;48.032;7.764;2023-06-22T10:34:14;16.70;;;7.43;;
35294;SDS011;21413;48.032;7.764;2023-06-22T10:36:40;11.13;;;8.33;;
35294;SDS011;21413;48.032;7.764;2023-06-22T10:39:06;15.90;;;7.53;;
35294;SDS011;21413;48.032;7.764;2023-06-22T10:41:35;16.33;;;7.50;;
35294;SDS011;21413;48.032;7.764;2023-06-22T10:44:01;12.83;;;8.30;;
35294;SDS011;21413;48.032;7.764;2023-06-22T10:46:27;13.07;;;8.10;;
35294;SDS011;21413;48.032;7.764;2023-06-22T10:48:53;12.27;;;9.23;;
35294;SDS011;21413;48.032;7.764;2023-06-22T10:51:20;12.70;;;8.60;;
35294;SDS011;21413;48.032;7.764;2023-06-22T10:53:46;13.87;;;9.60;;
35294;SDS011;21413;48.032;7.764;2023-06-22T10:56:12;13.47;;;9.27;;
35294;SDS011;21413;48.032;7.764;2023-06-22T10:58:38;15.80;;;9.33;;
35294;SDS011;21413;48.032;7.764;2023-06-22T11:01:04;11.30;;;9.03;;
35294;SDS011;21413;48.032;7.764;2023-06-22T11:03:30;16.50;;;9.57;;
35294;SDS011;21413;48.032;7.764;2023-06-22T11:05:56;12.83;;;8.43;;
35294;SDS011;21413;48.032;7.764;2023-06-22T11:08:22;22.43;;;10.27;;
35294;SDS011;21413;48.032;7.764;2023-06-22T11:10:48;20.00;;;9.13;;
35294;SDS011;21413;48.032;7.764;2023-06-22T11:13:14;15.83;;;8.43;;
35294;SDS011;21413;48.032;7.764;2023-06-22T11:15:40;16.00;;;8.63;;
35294;SDS011;21413;48.032;7.764;2023-06-22T11:18:06;14.60;;;8.80;;
35294;SDS011;21413;48.032;7.764;2023-06-22T11:20:33;12.60;;;8.40;;
35294;SDS011;21413;48.032;7.764;2023-06-22T11:23:03;17.70;;;8.60;;
35294;SDS011;21413;48.032;7.764;2023-06-22T11:25:32;16.70;;;8.47;;
35294;SDS011;21413;48.032;7.764;2023-06-22T11:27:59;19.73;;;9.03;;
35294;SDS011;21413;48.032;7.764;2023-06-22T11:30:25;15.40;;;9.60;;
35294;SDS011;21413;48.032;7.764;2023-06-22T11:32:54;26.37;;;8.50;;
35294;SDS011;21413;48.032;7.764;2023-06-22T11:35:20;16.93;;;9.27;;
35294;SDS011;21413;48.032;7.764;2023-06-22T11:37:46;21.57;;;9.37;;
35294;SDS011;21413;48.032;7.764;2023-06-22T11:40:14;12.40;;;8.80;;
35294;SDS011;21413;48.032;7.764;2023-06-22T11:42:42;12.63;;;8.67;;
35294;SDS011;21413;48.032;7.764;2023-06-22T11:45:08;10.43;;;8.73;;
35294;SDS011;21413;48.032;7.764;2023-06-22T11:47:34;16.47;;;9.80;;
35294;SDS011;21413;48.032;7.764;2023-06-22T11:50:01;20.97;;;8.77;;
35294;SDS011;21413;48.032;7.764;2023-06-22T11:52:27;14.83;;;9.83;;
35294;SDS011;21413;48.032;7.764;2023-06-22T11:54:53;13.10;;;9.30;;
35294;SDS011;21413;48.032;7.764;2023-06-22T11:57:19;22.03;;;9.17;;
35294;SDS011;21413;48.032;7.764;2023-06-22T11:59:47;15.23;;;9.10;;
35294;SDS011;21413;48.032;7.764;2023-06-22T12:02:13;10.80;;;9.70;;
35294;SDS011;21413;48.032;7.764;2023-06-22T12:04:39;21.03;;;8.67;;
35294;SDS011;21413;48.032;7.764;2023-06-22T12:07:05;12.77;;;9.03;;
35294;SDS011;21413;48.032;7.764;2023-06-22T12:09:31;11.67;;;8.50;;
35294;SDS011;21413;48.032;7.764;2023-06-22T12:11:57;11.90;;;8.97;;
35294;SDS011;21413;48.032;7.764;2023-06-22T12:14:23;20.83;;;8.73;;
35294;SDS011;21413;48.032;7.764;2023-06-22T12:16:49;12.07;;;9.20;;
35294;SDS011;21413;48.032;7.764;2023-06-22T12:19:15;18.17;;;10.30;;
35294;SDS011;21413;48.032;7.764;2023-06-22T12:21:44;15.97;;;9.47;;
35294;SDS011;21413;48.032;7.764;2023-06-22T12:24:11;16.23;;;10.53;;
35294;SDS011;21413;48.032;7.764;2023-06-22T12:26:37;18.80;;;10.10;;
35294;SDS011;21413;48.032;7.764;2023-06-22T12:29:02;18.63;;;9.90;;
35294;SDS011;21413;48.032;7.764;2023-06-22T12:31:28;10.23;;;8.87;;
35294;SDS011;21413;48.032;7.764;2023-06-22T12:33:57;23.20;;;9.30;;
35294;SDS011;21413;48.032;7.764;2023-06-22T12:36:23;17.83;;;8.77;;
35294;SDS011;21413;48.032;7.764;2023-06-22T12:38:49;17.00;;;7.67;;
35294;SDS011;21413;48.032;7.764;2023-06-22T12:41:16;11.37;;;7.27;;
35294;SDS011;21413;48.032;7.764;2023-06-22T12:43:42;15.60;;;7.77;;
35294;SDS011;21413;48.032;7.764;2023-06-22T12:46:08;13.53;;;7.37;;
35294;SDS011;21413;48.032;7.764;2023-06-22T12:48:34;13.67;;;7.47;;
35294;SDS011;21413;48.032;7.764;2023-06-22T12:51:07;9.17;;;6.77;;
35294;SDS011;21413;48.032;7.764;2023-06-22T12:53:33;14.20;;;7.20;;
35294;SDS011;21413;48.032;7.764;2023-06-22T12:55:59;20.60;;;7.73;;
35294;SDS011;21413;48.032;7.764;2023-06-22T12:58:25;19.70;;;6.80;;
35294;SDS011;21413;48.032;7.764;2023-06-22T13:00:51;15.00;;;6.20;;
35294;SDS011;21413;48.032;7.764;2023-06-22T13:03:17;18.33;;;7.53;;
35294;SDS011;21413;48.032;7.764;2023-06-22T13:05:43;11.13;;;6.13;;
35294;SDS011;21413;48.032;7.764;2023-06-22T13:08:09;13.97;;;6.90;;
35294;SDS011;21413;48.032;7.764;2023-06-22T13:10:36;18.50;;;6.40;;
35294;SDS011;21413;48.032;7.764;2023-06-22T13:13:01;18.67;;;6.97;;
35294;SDS011;21413;48.032;7.764;2023-06-22T13:15:28;14.73;;;7.10;;
35294;SDS011;21413;48.032;7.764;2023-06-22T13:17:54;19.60;;;6.93;;
35294;SDS011;21413;48.032;7.764;2023-06-22T13:20:20;15.33;;;7.20;;
35294;SDS011;21413;48.032;7.764;2023-06-22T13:22:46;19.97;;;7.07;;
35294;SDS011;21413;48.032;7.764;2023-06-22T13:25:15;15.80;;;7.17;;
35294;SDS011;21413;48.032;7.764;2023-06-22T13:27:44;11.77;;;6.83;;
35294;SDS011;21413;48.032;7.764;2023-06-22T13:30:14;12.63;;;7.10;;
35294;SDS011;21413;48.032;7.764;2023-06-22T13:32:40;12.63;;;6.53;;
35294;SDS011;21413;48.032;7.764;2023-06-22T13:35:08;15.93;;;6.97;;
35294;SDS011;21413;48.032;7.764;2023-06-22T13:37:34;13.37;;;7.10;;
35294;SDS011;21413;48.032;7.764;2023-06-22T13:40:00;15.23;;;6.83;;
35294;SDS011;21413;48.032;7.764;2023-06-22T13:42:30;11.70;;;6.53;;
35294;SDS011;21413;48.032;7.764;2023-06-22T13:44:58;10.00;;;6.03;;
35294;SDS011;21413;48.032;7.764;2023-06-22T13:47:24;20.47;;;7.60;;
35294;SDS011;21413;48.032;7.764;2023-06-22T13:49:52;21.37;;;6.70;;
35294;SDS011;21413;48.032;7.764;2023-06-22T13:52:18;12.07;;;6.60;;
35294;SDS011;21413;48.032;7.764;2023-06-22T13:54:44;16.03;;;6.80;;
35294;SDS011;21413;48.032;7.764;2023-06-22T13:57:10;20.60;;;7.30;;
35294;SDS011;21413;48.032;7.764;2023-06-22T13:59:36;13.37;;;5.97;;
35294;SDS011;21413;48.032;7.764;2023-06-22T14:02:02;13.40;;;6.13;;
35294;SDS011;21413;48.032;7.764;2023-06-22T14:04:28;15.83;;;6.63;;
35294;SDS011;21413;48.032;7.764;2023-06-22T14:06:54;11.17;;;6.23;;
35294;SDS011;21413;48.032;7.764;2023-06-22T14:09:21;12.80;;;5.93;;
35294;SDS011;21413;48.032;7.764;2023-06-22T14:11:47;12.73;;;6.30;;
35294;SDS011;21413;48.032;7.764;2023-06-22T14:14:12;21.20;;;6.83;;
35294;SDS011;21413;48.032;7.764;2023-06-22T14:16:41;20.00;;;6.30;;
35294;SDS011;21413;48.032;7.764;2023-06-22T14:19:07;15.60;;;6.77;;
35294;SDS011;21413;48.032;7.764;2023-06-22T14:21:33;10.10;;;5.93;;
35294;SDS011;21413;48.032;7.764;2023-06-22T14:24:01;12.03;;;6.60;;
35294;SDS011;21413;48.032;7.764;2023-06-22T14:26:27;14.97;;;7.00;;
35294;SDS011;21413;48.032;7.764;2023-06-22T14:28:53;11.07;;;6.77;;
35294;SDS011;21413;48.032;7.764;2023-06-22T14:31:19;10.13;;;6.20;;
35294;SDS011;21413;48.032;7.764;2023-06-22T14:33:48;26.40;;;7.03;;